Terminal Aerodrome Forecast
Issued by NWS

Home | Current Version | Previous Version | Graphics & Text | Print | Product List | Glossary On
Versions: 1 2 3 4 5 6 7 8 9 10 11 12 13 14 15 16 17 18 19 20 21
000
FTUS43 KBIS 300500
TAFMOT
TAF
KMOT 300536Z 3006/3106 16003KT P6SM SKC
     FM300700 VRB03KT 4SM BR SKC
     FM301500 15011KT P6SM SKC
     FM310000 14012KT P6SM VCTS SCT060CB=

USA.gov is the U.S. government's official web portal to all federal, state and local government web resources and services.